sensor_id;sensor_type;location;lat;lon;timestamp;P1;durP1;ratioP1;P2;durP2;ratioP2
19016;SDS011;9641;51.494;6.670;2023-05-10T00:00:41;24.50;;;11.10;;
19016;SDS011;9641;51.494;6.670;2023-05-10T00:03:08;23.63;;;11.53;;
19016;SDS011;9641;51.494;6.670;2023-05-10T00:05:39;25.43;;;11.63;;
19016;SDS011;9641;51.494;6.670;2023-05-10T00:08:05;25.53;;;11.53;;
19016;SDS011;9641;51.494;6.670;2023-05-10T00:10:32;23.07;;;11.53;;
19016;SDS011;9641;51.494;6.670;2023-05-10T00:12:59;25.73;;;10.70;;
19016;SDS011;9641;51.494;6.670;2023-05-10T00:15:27;28.10;;;12.83;;
19016;SDS011;9641;51.494;6.670;2023-05-10T00:17:55;28.30;;;12.13;;
19016;SDS011;9641;51.494;6.670;2023-05-10T00:20:22;30.47;;;12.70;;
19016;SDS011;9641;51.494;6.670;2023-05-10T00:22:49;27.47;;;12.20;;
19016;SDS011;9641;51.494;6.670;2023-05-10T00:25:16;24.80;;;12.00;;
19016;SDS011;9641;51.494;6.670;2023-05-10T00:27:43;29.10;;;12.37;;
19016;SDS011;9641;51.494;6.670;2023-05-10T00:30:10;30.63;;;13.00;;
19016;SDS011;9641;51.494;6.670;2023-05-10T00:32:38;28.80;;;12.17;;
19016;SDS011;9641;51.494;6.670;2023-05-10T00:35:05;30.83;;;13.03;;
19016;SDS011;9641;51.494;6.670;2023-05-10T00:37:32;27.53;;;13.17;;
19016;SDS011;9641;51.494;6.670;2023-05-10T00:39:59;32.13;;;12.80;;
19016;SDS011;9641;51.494;6.670;2023-05-10T00:42:26;33.37;;;13.23;;
19016;SDS011;9641;51.494;6.670;2023-05-10T00:44:54;31.47;;;13.77;;
19016;SDS011;9641;51.494;6.670;2023-05-10T00:47:21;29.03;;;12.73;;
19016;SDS011;9641;51.494;6.670;2023-05-10T00:49:49;28.97;;;13.93;;
19016;SDS011;9641;51.494;6.670;2023-05-10T00:52:17;32.27;;;14.23;;
19016;SDS011;9641;51.494;6.670;2023-05-10T00:54:44;32.40;;;13.37;;
19016;SDS011;9641;51.494;6.670;2023-05-10T00:57:11;33.37;;;14.73;;
19016;SDS011;9641;51.494;6.670;2023-05-10T00:59:38;33.30;;;14.77;;
19016;SDS011;9641;51.494;6.670;2023-05-10T01:02:04;28.93;;;14.63;;
19016;SDS011;9641;51.494;6.670;2023-05-10T01:04:32;31.33;;;13.30;;
19016;SDS011;9641;51.494;6.670;2023-05-10T01:07:00;30.63;;;13.63;;
19016;SDS011;9641;51.494;6.670;2023-05-10T01:09:27;31.20;;;14.70;;
19016;SDS011;9641;51.494;6.670;2023-05-10T01:11:54;33.23;;;13.50;;
19016;SDS011;9641;51.494;6.670;2023-05-10T01:14:22;32.30;;;14.43;;
19016;SDS011;9641;51.494;6.670;2023-05-10T01:16:50;28.47;;;13.00;;
19016;SDS011;9641;51.494;6.670;2023-05-10T01:19:21;29.77;;;13.17;;
19016;SDS011;9641;51.494;6.670;2023-05-10T01:21:52;26.93;;;12.80;;
19016;SDS011;9641;51.494;6.670;2023-05-10T01:24:46;29.03;;;13.57;;
19016;SDS011;9641;51.494;6.670;2023-05-10T01:27:42;30.53;;;12.60;;
19016;SDS011;9641;51.494;6.670;2023-05-10T01:33:24;29.80;;;13.13;;
19016;SDS011;9641;51.494;6.670;2023-05-10T01:35:58;29.73;;;12.80;;
19016;SDS011;9641;51.494;6.670;2023-05-10T01:38:33;34.57;;;13.60;;
19016;SDS011;9641;51.494;6.670;2023-05-10T01:41:11;26.60;;;12.63;;
19016;SDS011;9641;51.494;6.670;2023-05-10T01:43:42;31.13;;;13.53;;
19016;SDS011;9641;51.494;6.670;2023-05-10T01:46:16;31.23;;;12.60;;
19016;SDS011;9641;51.494;6.670;2023-05-10T01:48:48;30.60;;;12.90;;
19016;SDS011;9641;51.494;6.670;2023-05-10T01:51:21;29.57;;;12.87;;
19016;SDS011;9641;51.494;6.670;2023-05-10T01:53:53;25.00;;;11.83;;
19016;SDS011;9641;51.494;6.670;2023-05-10T01:56:25;32.27;;;14.03;;
19016;SDS011;9641;51.494;6.670;2023-05-10T01:58:54;27.83;;;13.57;;
19016;SDS011;9641;51.494;6.670;2023-05-10T02:01:22;27.07;;;13.30;;
19016;SDS011;9641;51.494;6.670;2023-05-10T02:03:53;27.10;;;12.93;;
19016;SDS011;9641;51.494;6.670;2023-05-10T02:06:22;28.63;;;13.43;;
19016;SDS011;9641;51.494;6.670;2023-05-10T02:08:52;26.30;;;13.13;;
19016;SDS011;9641;51.494;6.670;2023-05-10T02:11:19;34.87;;;13.90;;
19016;SDS011;9641;51.494;6.670;2023-05-10T02:13:48;27.23;;;13.30;;
19016;SDS011;9641;51.494;6.670;2023-05-10T02:16:16;29.70;;;13.77;;
19016;SDS011;9641;51.494;6.670;2023-05-10T02:18:48;30.63;;;14.73;;
19016;SDS011;9641;51.494;6.670;2023-05-10T02:21:18;31.63;;;14.23;;
19016;SDS011;9641;51.494;6.670;2023-05-10T02:23:46;29.37;;;13.70;;
19016;SDS011;9641;51.494;6.670;2023-05-10T02:26:16;35.93;;;14.53;;
19016;SDS011;9641;51.494;6.670;2023-05-10T02:28:44;31.10;;;14.43;;
19016;SDS011;9641;51.494;6.670;2023-05-10T02:31:11;34.30;;;15.20;;
19016;SDS011;9641;51.494;6.670;2023-05-10T02:33:39;33.43;;;15.00;;
19016;SDS011;9641;51.494;6.670;2023-05-10T02:36:07;32.43;;;14.67;;
19016;SDS011;9641;51.494;6.670;2023-05-10T02:38:37;29.60;;;14.37;;
19016;SDS011;9641;51.494;6.670;2023-05-10T02:41:05;30.27;;;14.17;;
19016;SDS011;9641;51.494;6.670;2023-05-10T02:43:33;30.87;;;14.23;;
19016;SDS011;9641;51.494;6.670;2023-05-10T02:46:02;34.77;;;16.20;;
19016;SDS011;9641;51.494;6.670;2023-05-10T02:48:29;28.60;;;14.37;;
19016;SDS011;9641;51.494;6.670;2023-05-10T02:50:58;31.87;;;15.70;;
19016;SDS011;9641;51.494;6.670;2023-05-10T02:53:35;31.73;;;14.27;;
19016;SDS011;9641;51.494;6.670;2023-05-10T02:56:09;30.53;;;14.43;;
19016;SDS011;9641;51.494;6.670;2023-05-10T02:58:38;30.97;;;13.77;;
19016;SDS011;9641;51.494;6.670;2023-05-10T03:01:05;31.93;;;14.80;;
19016;SDS011;9641;51.494;6.670;2023-05-10T03:03:33;32.77;;;14.77;;
19016;SDS011;9641;51.494;6.670;2023-05-10T03:06:00;34.57;;;14.73;;
19016;SDS011;9641;51.494;6.670;2023-05-10T03:08:27;28.17;;;14.27;;
19016;SDS011;9641;51.494;6.670;2023-05-10T03:10:59;29.87;;;14.07;;
19016;SDS011;9641;51.494;6.670;2023-05-10T03:13:48;30.07;;;14.37;;
19016;SDS011;9641;51.494;6.670;2023-05-10T03:16:24;30.90;;;13.70;;
19016;SDS011;9641;51.494;6.670;2023-05-10T03:18:54;30.57;;;14.03;;
19016;SDS011;9641;51.494;6.670;2023-05-10T03:21:28;37.93;;;15.80;;
19016;SDS011;9641;51.494;6.670;2023-05-10T03:23:58;34.67;;;14.93;;
19016;SDS011;9641;51.494;6.670;2023-05-10T03:26:32;39.07;;;15.50;;
19016;SDS011;9641;51.494;6.670;2023-05-10T03:29:08;28.50;;;13.73;;
19016;SDS011;9641;51.494;6.670;2023-05-10T03:31:36;30.50;;;14.77;;
19016;SDS011;9641;51.494;6.670;2023-05-10T03:34:04;34.50;;;15.60;;
19016;SDS011;9641;51.494;6.670;2023-05-10T03:36:32;32.50;;;14.43;;
19016;SDS011;9641;51.494;6.670;2023-05-10T03:38:59;30.73;;;14.77;;
19016;SDS011;9641;51.494;6.670;2023-05-10T03:41:26;40.37;;;15.37;;
19016;SDS011;9641;51.494;6.670;2023-05-10T03:43:55;32.20;;;14.97;;
19016;SDS011;9641;51.494;6.670;2023-05-10T03:46:21;33.07;;;15.63;;
19016;SDS011;9641;51.494;6.670;2023-05-10T03:48:48;33.27;;;13.93;;
19016;SDS011;9641;51.494;6.670;2023-05-10T03:51:15;42.30;;;16.03;;
19016;SDS011;9641;51.494;6.670;2023-05-10T03:53:42;32.03;;;15.00;;
19016;SDS011;9641;51.494;6.670;2023-05-10T03:56:09;39.13;;;15.77;;
19016;SDS011;9641;51.494;6.670;2023-05-10T03:58:36;37.67;;;16.20;;
19016;SDS011;9641;51.494;6.670;2023-05-10T04:01:04;38.00;;;15.87;;
19016;SDS011;9641;51.494;6.670;2023-05-10T04:03:31;38.67;;;16.13;;
19016;SDS011;9641;51.494;6.670;2023-05-10T04:05:59;39.67;;;15.40;;
19016;SDS011;9641;51.494;6.670;2023-05-10T04:08:26;40.70;;;18.40;;
19016;SDS011;9641;51.494;6.670;2023-05-10T04:10:53;32.93;;;15.13;;
19016;SDS011;9641;51.494;6.670;2023-05-10T04:13:20;39.13;;;16.27;;
19016;SDS011;9641;51.494;6.670;2023-05-10T04:15:47;40.07;;;16.63;;
19016;SDS011;9641;51.494;6.670;2023-05-10T04:18:15;42.77;;;16.63;;
19016;SDS011;9641;51.494;6.670;2023-05-10T04:20:42;44.17;;;17.63;;
19016;SDS011;9641;51.494;6.670;2023-05-10T04:23:09;38.17;;;16.87;;
19016;SDS011;9641;51.494;6.670;2023-05-10T04:25:36;36.57;;;16.50;;
19016;SDS011;9641;51.494;6.670;2023-05-10T04:28:03;45.43;;;17.70;;
19016;SDS011;9641;51.494;6.670;2023-05-10T04:30:30;40.20;;;16.60;;
19016;SDS011;9641;51.494;6.670;2023-05-10T04:32:57;45.93;;;18.87;;
19016;SDS011;9641;51.494;6.670;2023-05-10T04:35:26;43.87;;;17.37;;
19016;SDS011;9641;51.494;6.670;2023-05-10T04:37:53;42.67;;;17.77;;
19016;SDS011;9641;51.494;6.670;2023-05-10T04:40:20;44.03;;;18.37;;
19016;SDS011;9641;51.494;6.670;2023-05-10T04:42:47;43.53;;;18.20;;
19016;SDS011;9641;51.494;6.670;2023-05-10T04:45:14;50.17;;;19.80;;
19016;SDS011;9641;51.494;6.670;2023-05-10T04:47:40;47.90;;;20.17;;
19016;SDS011;9641;51.494;6.670;2023-05-10T04:50:07;48.93;;;20.17;;
19016;SDS011;9641;51.494;6.670;2023-05-10T04:52:36;49.47;;;22.17;;
19016;SDS011;9641;51.494;6.670;2023-05-10T04:55:03;48.10;;;20.43;;
19016;SDS011;9641;51.494;6.670;2023-05-10T04:57:32;49.90;;;22.03;;
19016;SDS011;9641;51.494;6.670;2023-05-10T04:59:59;52.70;;;22.00;;
19016;SDS011;9641;51.494;6.670;2023-05-10T05:02:26;51.80;;;22.43;;
19016;SDS011;9641;51.494;6.670;2023-05-10T05:04:55;54.97;;;20.97;;
19016;SDS011;9641;51.494;6.670;2023-05-10T05:07:23;52.70;;;22.30;;
19016;SDS011;9641;51.494;6.670;2023-05-10T05:09:51;46.97;;;22.03;;
19016;SDS011;9641;51.494;6.670;2023-05-10T05:12:18;58.43;;;22.30;;
19016;SDS011;9641;51.494;6.670;2023-05-10T05:14:45;54.13;;;22.97;;
19016;SDS011;9641;51.494;6.670;2023-05-10T05:17:12;57.67;;;22.67;;
19016;SDS011;9641;51.494;6.670;2023-05-10T05:19:38;55.37;;;22.57;;
19016;SDS011;9641;51.494;6.670;2023-05-10T05:22:06;58.80;;;24.33;;
19016;SDS011;9641;51.494;6.670;2023-05-10T05:24:34;53.47;;;23.23;;
19016;SDS011;9641;51.494;6.670;2023-05-10T05:27:04;60.00;;;25.17;;
19016;SDS011;9641;51.494;6.670;2023-05-10T05:29:32;57.23;;;24.03;;
19016;SDS011;9641;51.494;6.670;2023-05-10T05:31:59;58.17;;;24.37;;
19016;SDS011;9641;51.494;6.670;2023-05-10T05:34:26;59.87;;;24.00;;
19016;SDS011;9641;51.494;6.670;2023-05-10T05:36:55;57.33;;;23.97;;
19016;SDS011;9641;51.494;6.670;2023-05-10T05:39:22;63.80;;;24.10;;
19016;SDS011;9641;51.494;6.670;2023-05-10T05:41:49;61.23;;;23.73;;
19016;SDS011;9641;51.494;6.670;2023-05-10T05:44:17;62.00;;;24.47;;
19016;SDS011;9641;51.494;6.670;2023-05-10T05:46:44;64.63;;;25.67;;
19016;SDS011;9641;51.494;6.670;2023-05-10T05:49:11;57.57;;;24.53;;
19016;SDS011;9641;51.494;6.670;2023-05-10T05:51:37;60.93;;;24.50;;
19016;SDS011;9641;51.494;6.670;2023-05-10T05:54:05;60.37;;;24.23;;
19016;SDS011;9641;51.494;6.670;2023-05-10T05:56:37;57.63;;;23.93;;
19016;SDS011;9641;51.494;6.670;2023-05-10T05:59:04;64.37;;;24.77;;
19016;SDS011;9641;51.494;6.670;2023-05-10T06:01:32;68.97;;;24.50;;
19016;SDS011;9641;51.494;6.670;2023-05-10T06:04:02;60.00;;;25.23;;
19016;SDS011;9641;51.494;6.670;2023-05-10T06:06:29;64.57;;;25.73;;
19016;SDS011;9641;51.494;6.670;2023-05-10T06:08:57;62.87;;;25.33;;
19016;SDS011;9641;51.494;6.670;2023-05-10T06:11:24;62.90;;;25.70;;
19016;SDS011;9641;51.494;6.670;2023-05-10T06:13:51;63.47;;;25.87;;
19016;SDS011;9641;51.494;6.670;2023-05-10T06:16:18;65.63;;;25.80;;
19016;SDS011;9641;51.494;6.670;2023-05-10T06:18:46;68.60;;;26.53;;
19016;SDS011;9641;51.494;6.670;2023-05-10T06:21:13;64.27;;;28.07;;
19016;SDS011;9641;51.494;6.670;2023-05-10T06:23:41;73.57;;;27.00;;
19016;SDS011;9641;51.494;6.670;2023-05-10T06:26:09;57.17;;;24.37;;
19016;SDS011;9641;51.494;6.670;2023-05-10T06:28:35;65.77;;;27.60;;
19016;SDS011;9641;51.494;6.670;2023-05-10T06:31:04;64.00;;;25.77;;
19016;SDS011;9641;51.494;6.670;2023-05-10T06:33:31;64.10;;;25.17;;
19016;SDS011;9641;51.494;6.670;2023-05-10T06:35:59;68.23;;;27.23;;
19016;SDS011;9641;51.494;6.670;2023-05-10T06:38:27;62.83;;;25.90;;
19016;SDS011;9641;51.494;6.670;2023-05-10T06:40:53;63.90;;;25.73;;
19016;SDS011;9641;51.494;6.670;2023-05-10T06:43:20;66.10;;;25.07;;
19016;SDS011;9641;51.494;6.670;2023-05-10T06:45:47;60.97;;;24.43;;
19016;SDS011;9641;51.494;6.670;2023-05-10T06:48:14;67.43;;;26.73;;
19016;SDS011;9641;51.494;6.670;2023-05-10T06:50:41;73.50;;;26.70;;
19016;SDS011;9641;51.494;6.670;2023-05-10T06:53:10;63.17;;;25.83;;
19016;SDS011;9641;51.494;6.670;2023-05-10T06:55:38;72.47;;;28.17;;
19016;SDS011;9641;51.494;6.670;2023-05-10T06:58:05;72.47;;;26.80;;
19016;SDS011;9641;51.494;6.670;2023-05-10T07:00:32;68.30;;;26.67;;
19016;SDS011;9641;51.494;6.670;2023-05-10T07:02:59;65.87;;;26.37;;
19016;SDS011;9641;51.494;6.670;2023-05-10T07:05:25;64.93;;;26.10;;
19016;SDS011;9641;51.494;6.670;2023-05-10T07:07:54;64.77;;;25.73;;
19016;SDS011;9641;51.494;6.670;2023-05-10T07:10:22;69.37;;;25.53;;
19016;SDS011;9641;51.494;6.670;2023-05-10T07:12:49;66.43;;;24.83;;
19016;SDS011;9641;51.494;6.670;2023-05-10T07:15:16;68.77;;;24.23;;
19016;SDS011;9641;51.494;6.670;2023-05-10T07:17:43;67.53;;;25.00;;
19016;SDS011;9641;51.494;6.670;2023-05-10T07:20:10;67.50;;;25.70;;
19016;SDS011;9641;51.494;6.670;2023-05-10T07:22:38;62.00;;;24.27;;
19016;SDS011;9641;51.494;6.670;2023-05-10T07:25:05;57.27;;;23.83;;
19016;SDS011;9641;51.494;6.670;2023-05-10T07:27:34;62.07;;;24.30;;
19016;SDS011;9641;51.494;6.670;2023-05-10T07:30:01;54.13;;;22.87;;
19016;SDS011;9641;51.494;6.670;2023-05-10T07:32:28;52.73;;;22.60;;
19016;SDS011;9641;51.494;6.670;2023-05-10T07:34:55;53.60;;;22.17;;
19016;SDS011;9641;51.494;6.670;2023-05-10T07:37:22;54.33;;;22.47;;
19016;SDS011;9641;51.494;6.670;2023-05-10T07:39:52;56.23;;;20.77;;
19016;SDS011;9641;51.494;6.670;2023-05-10T07:42:44;53.23;;;20.97;;
19016;SDS011;9641;51.494;6.670;2023-05-10T07:45:11;54.80;;;21.90;;
19016;SDS011;9641;51.494;6.670;2023-05-10T07:47:38;52.60;;;21.07;;
19016;SDS011;9641;51.494;6.670;2023-05-10T07:50:05;51.20;;;22.43;;
19016;SDS011;9641;51.494;6.670;2023-05-10T07:52:33;53.30;;;22.20;;
19016;SDS011;9641;51.494;6.670;2023-05-10T07:55:00;59.33;;;22.77;;
19016;SDS011;9641;51.494;6.670;2023-05-10T07:57:27;54.00;;;21.73;;
19016;SDS011;9641;51.494;6.670;2023-05-10T07:59:55;53.73;;;21.70;;
19016;SDS011;9641;51.494;6.670;2023-05-10T08:02:22;53.53;;;22.10;;
19016;SDS011;9641;51.494;6.670;2023-05-10T08:04:49;55.23;;;22.53;;
19016;SDS011;9641;51.494;6.670;2023-05-10T08:07:16;54.60;;;22.73;;
19016;SDS011;9641;51.494;6.670;2023-05-10T08:09:43;55.13;;;23.30;;
19016;SDS011;9641;51.494;6.670;2023-05-10T08:12:10;54.20;;;21.30;;
19016;SDS011;9641;51.494;6.670;2023-05-10T08:14:37;45.60;;;19.40;;
19016;SDS011;9641;51.494;6.670;2023-05-10T08:17:05;45.20;;;20.53;;
19016;SDS011;9641;51.494;6.670;2023-05-10T08:19:32;46.63;;;19.43;;
19016;SDS011;9641;51.494;6.670;2023-05-10T08:21:58;45.77;;;19.43;;
19016;SDS011;9641;51.494;6.670;2023-05-10T08:24:25;41.90;;;19.30;;
19016;SDS011;9641;51.494;6.670;2023-05-10T08:26:52;46.03;;;19.93;;
19016;SDS011;9641;51.494;6.670;2023-05-10T08:29:19;43.20;;;18.60;;
19016;SDS011;9641;51.494;6.670;2023-05-10T08:31:46;43.60;;;18.90;;
19016;SDS011;9641;51.494;6.670;2023-05-10T08:34:14;44.97;;;20.27;;
19016;SDS011;9641;51.494;6.670;2023-05-10T08:36:41;40.07;;;18.27;;
19016;SDS011;9641;51.494;6.670;2023-05-10T08:39:07;36.33;;;19.67;;
19016;SDS011;9641;51.494;6.670;2023-05-10T08:41:34;39.80;;;20.07;;
19016;SDS011;9641;51.494;6.670;2023-05-10T08:44:05;37.23;;;18.80;;
19016;SDS011;9641;51.494;6.670;2023-05-10T08:46:34;40.77;;;19.40;;
19016;SDS011;9641;51.494;6.670;2023-05-10T08:49:05;34.57;;;17.80;;
19016;SDS011;9641;51.494;6.670;2023-05-10T08:51:36;36.87;;;17.93;;
19016;SDS011;9641;51.494;6.670;2023-05-10T08:54:04;38.47;;;18.70;;
19016;SDS011;9641;51.494;6.670;2023-05-10T08:56:31;34.50;;;18.00;;
19016;SDS011;9641;51.494;6.670;2023-05-10T08:58:58;38.03;;;18.23;;
19016;SDS011;9641;51.494;6.670;2023-05-10T09:01:25;34.03;;;17.57;;
19016;SDS011;9641;51.494;6.670;2023-05-10T09:03:53;38.20;;;18.50;;
19016;SDS011;9641;51.494;6.670;2023-05-10T09:06:21;35.57;;;18.53;;
19016;SDS011;9641;51.494;6.670;2023-05-10T09:08:50;33.43;;;18.50;;
19016;SDS011;9641;51.494;6.670;2023-05-10T09:11:18;34.33;;;17.13;;
19016;SDS011;9641;51.494;6.670;2023-05-10T09:13:47;32.17;;;16.20;;
19016;SDS011;9641;51.494;6.670;2023-05-10T09:16:16;32.63;;;17.33;;
19016;SDS011;9641;51.494;6.670;2023-05-10T09:18:43;29.33;;;14.70;;
19016;SDS011;9641;51.494;6.670;2023-05-10T09:21:10;28.77;;;14.70;;
19016;SDS011;9641;51.494;6.670;2023-05-10T09:23:37;25.50;;;14.63;;
19016;SDS011;9641;51.494;6.670;2023-05-10T09:26:06;29.73;;;13.03;;
19016;SDS011;9641;51.494;6.670;2023-05-10T09:28:33;26.33;;;13.63;;
19016;SDS011;9641;51.494;6.670;2023-05-10T09:31:15;26.97;;;14.10;;
19016;SDS011;9641;51.494;6.670;2023-05-10T09:33:43;24.33;;;14.40;;
19016;SDS011;9641;51.494;6.670;2023-05-10T09:36:11;31.30;;;15.13;;
19016;SDS011;9641;51.494;6.670;2023-05-10T09:38:45;26.70;;;14.63;;
19016;SDS011;9641;51.494;6.670;2023-05-10T09:41:17;24.37;;;14.43;;
19016;SDS011;9641;51.494;6.670;2023-05-10T09:43:45;28.47;;;14.77;;
19016;SDS011;9641;51.494;6.670;2023-05-10T09:46:12;29.87;;;15.93;;
19016;SDS011;9641;51.494;6.670;2023-05-10T09:48:41;29.90;;;16.90;;
19016;SDS011;9641;51.494;6.670;2023-05-10T09:51:09;27.77;;;15.47;;
19016;SDS011;9641;51.494;6.670;2023-05-10T09:53:36;31.33;;;15.90;;
19016;SDS011;9641;51.494;6.670;2023-05-10T09:56:03;29.87;;;15.87;;
19016;SDS011;9641;51.494;6.670;2023-05-10T09:58:32;27.83;;;15.57;;
19016;SDS011;9641;51.494;6.670;2023-05-10T10:01:04;25.53;;;15.57;;
19016;SDS011;9641;51.494;6.670;2023-05-10T10:03:40;33.03;;;15.00;;
19016;SDS011;9641;51.494;6.670;2023-05-10T10:06:08;31.13;;;15.57;;
19016;SDS011;9641;51.494;6.670;2023-05-10T10:08:35;26.27;;;13.87;;
19016;SDS011;9641;51.494;6.670;2023-05-10T10:11:03;28.70;;;15.03;;
19016;SDS011;9641;51.494;6.670;2023-05-10T10:13:32;27.67;;;14.33;;
19016;SDS011;9641;51.494;6.670;2023-05-10T10:15:59;26.73;;;14.40;;
19016;SDS011;9641;51.494;6.670;2023-05-10T10:18:26;25.33;;;13.80;;
19016;SDS011;9641;51.494;6.670;2023-05-10T10:20:54;26.03;;;13.20;;
19016;SDS011;9641;51.494;6.670;2023-05-10T10:23:23;21.80;;;13.23;;
19016;SDS011;9641;51.494;6.670;2023-05-10T10:25:50;24.57;;;13.27;;
19016;SDS011;9641;51.494;6.670;2023-05-10T10:28:21;24.93;;;13.50;;
19016;SDS011;9641;51.494;6.670;2023-05-10T10:30:54;27.33;;;14.17;;
19016;SDS011;9641;51.494;6.670;2023-05-10T10:36:17;25.97;;;15.50;;
19016;SDS011;9641;51.494;6.670;2023-05-10T10:38:54;29.83;;;15.47;;
19016;SDS011;9641;51.494;6.670;2023-05-10T10:41:28;28.67;;;16.57;;
19016;SDS011;9641;51.494;6.670;2023-05-10T10:47:06;30.30;;;16.70;;
19016;SDS011;9641;51.494;6.670;2023-05-10T10:49:50;30.63;;;16.97;;
19016;SDS011;9641;51.494;6.670;2023-05-10T10:52:23;29.63;;;17.00;;
19016;SDS011;9641;51.494;6.670;2023-05-10T10:54:54;29.83;;;15.73;;
19016;SDS011;9641;51.494;6.670;2023-05-10T10:57:25;32.83;;;16.10;;
19016;SDS011;9641;51.494;6.670;2023-05-10T11:02:49;26.63;;;15.80;;
19016;SDS011;9641;51.494;6.670;2023-05-10T11:05:24;27.13;;;15.97;;
19016;SDS011;9641;51.494;6.670;2023-05-10T11:08:07;30.13;;;16.80;;
19016;SDS011;9641;51.494;6.670;2023-05-10T11:10:51;30.00;;;17.30;;
19016;SDS011;9641;51.494;6.670;2023-05-10T11:13:29;27.50;;;16.50;;
19016;SDS011;9641;51.494;6.670;2023-05-10T11:15:57;28.67;;;16.90;;
19016;SDS011;9641;51.494;6.670;2023-05-10T11:18:27;27.83;;;15.90;;
19016;SDS011;9641;51.494;6.670;2023-05-10T11:20:56;30.67;;;16.30;;
19016;SDS011;9641;51.494;6.670;2023-05-10T11:23:29;26.97;;;15.50;;
19016;SDS011;9641;51.494;6.670;2023-05-10T11:25:57;23.23;;;14.83;;
19016;SDS011;9641;51.494;6.670;2023-05-10T11:28:25;25.37;;;13.63;;
19016;SDS011;9641;51.494;6.670;2023-05-10T11:30:53;23.00;;;12.40;;
19016;SDS011;9641;51.494;6.670;2023-05-10T11:33:20;24.27;;;10.90;;
19016;SDS011;9641;51.494;6.670;2023-05-10T11:35:49;19.53;;;10.87;;
19016;SDS011;9641;51.494;6.670;2023-05-10T11:38:16;18.77;;;10.40;;
19016;SDS011;9641;51.494;6.670;2023-05-10T11:40:43;15.67;;;10.50;;
19016;SDS011;9641;51.494;6.670;2023-05-10T11:43:10;16.47;;;9.70;;
19016;SDS011;9641;51.494;6.670;2023-05-10T11:45:37;12.67;;;8.77;;
19016;SDS011;9641;51.494;6.670;2023-05-10T11:48:06;20.53;;;8.53;;
19016;SDS011;9641;51.494;6.670;2023-05-10T11:50:34;13.17;;;7.97;;
19016;SDS011;9641;51.494;6.670;2023-05-10T11:53:02;14.57;;;8.13;;
19016;SDS011;9641;51.494;6.670;2023-05-10T11:55:29;14.97;;;7.43;;
19016;SDS011;9641;51.494;6.670;2023-05-10T11:58:00;11.27;;;7.20;;
19016;SDS011;9641;51.494;6.670;2023-05-10T12:00:27;10.17;;;7.27;;
19016;SDS011;9641;51.494;6.670;2023-05-10T12:02:55;11.20;;;6.57;;
19016;SDS011;9641;51.494;6.670;2023-05-10T12:05:22;12.27;;;6.00;;
19016;SDS011;9641;51.494;6.670;2023-05-10T12:07:50;10.80;;;7.00;;
19016;SDS011;9641;51.494;6.670;2023-05-10T12:10:24;8.60;;;5.87;;
19016;SDS011;9641;51.494;6.670;2023-05-10T12:13:03;11.30;;;6.77;;
19016;SDS011;9641;51.494;6.670;2023-05-10T12:15:30;8.43;;;6.10;;
19016;SDS011;9641;51.494;6.670;2023-05-10T12:17:57;10.47;;;6.57;;
19016;SDS011;9641;51.494;6.670;2023-05-10T12:20:26;8.60;;;5.37;;
19016;SDS011;9641;51.494;6.670;2023-05-10T12:22:54;9.03;;;6.43;;
19016;SDS011;9641;51.494;6.670;2023-05-10T12:25:29;7.27;;;5.20;;
19016;SDS011;9641;51.494;6.670;2023-05-10T12:27:58;8.50;;;6.23;;
19016;SDS011;9641;51.494;6.670;2023-05-10T12:30:30;7.60;;;5.70;;
19016;SDS011;9641;51.494;6.670;2023-05-10T12:32:59;7.60;;;5.60;;
19016;SDS011;9641;51.494;6.670;2023-05-10T12:35:29;7.30;;;5.67;;
19016;SDS011;9641;51.494;6.670;2023-05-10T12:37:57;7.97;;;4.83;;
19016;SDS011;9641;51.494;6.670;2023-05-10T12:40:24;8.07;;;4.80;;
19016;SDS011;9641;51.494;6.670;2023-05-10T12:42:56;6.50;;;5.13;;
19016;SDS011;9641;51.494;6.670;2023-05-10T12:45:27;6.53;;;4.60;;
19016;SDS011;9641;51.494;6.670;2023-05-10T12:47:55;5.80;;;4.40;;
19016;SDS011;9641;51.494;6.670;2023-05-10T12:50:22;5.45;;;4.70;;
19016;SDS011;9641;51.494;6.670;2023-05-10T12:52:49;6.85;;;4.90;;
19016;SDS011;9641;51.494;6.670;2023-05-10T12:55:16;7.40;;;5.22;;
19016;SDS011;9641;51.494;6.670;2023-05-10T12:57:43;8.13;;;5.35;;
19016;SDS011;9641;51.494;6.670;2023-05-10T13:00:12;7.45;;;5.40;;
19016;SDS011;9641;51.494;6.670;2023-05-10T13:02:40;6.15;;;4.93;;
19016;SDS011;9641;51.494;6.670;2023-05-10T13:05:08;6.70;;;4.63;;
19016;SDS011;9641;51.494;6.670;2023-05-10T13:07:35;9.13;;;4.85;;
19016;SDS011;9641;51.494;6.670;2023-05-10T13:10:02;6.07;;;3.97;;
19016;SDS011;9641;51.494;6.670;2023-05-10T13:12:29;7.05;;;4.68;;
19016;SDS011;9641;51.494;6.670;2023-05-10T13:14:56;5.55;;;4.20;;
19016;SDS011;9641;51.494;6.670;2023-05-10T13:17:25;6.88;;;3.92;;
19016;SDS011;9641;51.494;6.670;2023-05-10T13:19:52;6.38;;;3.78;;
19016;SDS011;9641;51.494;6.670;2023-05-10T13:22:19;6.47;;;3.88;;
19016;SDS011;9641;51.494;6.670;2023-05-10T13:24:46;7.30;;;5.03;;
19016;SDS011;9641;51.494;6.670;2023-05-10T13:27:13;8.82;;;4.00;;
19016;SDS011;9641;51.494;6.670;2023-05-10T13:29:40;5.10;;;4.05;;
19016;SDS011;9641;51.494;6.670;2023-05-10T13:32:07;8.25;;;4.40;;
19016;SDS011;9641;51.494;6.670;2023-05-10T13:34:36;5.13;;;4.57;;
19016;SDS011;9641;51.494;6.670;2023-05-10T13:37:03;6.70;;;4.63;;
19016;SDS011;9641;51.494;6.670;2023-05-10T13:39:30;5.65;;;4.28;;
19016;SDS011;9641;51.494;6.670;2023-05-10T13:42:02;9.93;;;5.38;;
19016;SDS011;9641;51.494;6.670;2023-05-10T13:44:30;8.02;;;5.53;;
19016;SDS011;9641;51.494;6.670;2023-05-10T13:46:58;7.53;;;5.07;;
19016;SDS011;9641;51.494;6.670;2023-05-10T13:49:26;6.78;;;4.72;;
19016;SDS011;9641;51.494;6.670;2023-05-10T13:51:54;5.18;;;4.68;;
19016;SDS011;9641;51.494;6.670;2023-05-10T13:54:23;7.65;;;4.55;;
19016;SDS011;9641;51.494;6.670;2023-05-10T13:56:51;11.10;;;5.68;;
19016;SDS011;9641;51.494;6.670;2023-05-10T13:59:18;5.55;;;4.80;;
19016;SDS011;9641;51.494;6.670;2023-05-10T14:01:45;5.95;;;4.63;;
19016;SDS011;9641;51.494;6.670;2023-05-10T14:04:12;7.53;;;5.40;;
19016;SDS011;9641;51.494;6.670;2023-05-10T14:06:39;7.78;;;5.45;;
19016;SDS011;9641;51.494;6.670;2023-05-10T14:09:08;7.75;;;6.13;;
19016;SDS011;9641;51.494;6.670;2023-05-10T14:11:35;10.55;;;6.97;;
19016;SDS011;9641;51.494;6.670;2023-05-10T14:14:07;7.03;;;6.03;;
19016;SDS011;9641;51.494;6.670;2023-05-10T14:16:33;7.85;;;5.65;;
19016;SDS011;9641;51.494;6.670;2023-05-10T14:19:00;9.85;;;6.43;;
19016;SDS011;9641;51.494;6.670;2023-05-10T14:21:27;13.80;;;6.28;;
19016;SDS011;9641;51.494;6.670;2023-05-10T14:23:55;7.25;;;5.65;;
19016;SDS011;9641;51.494;6.670;2023-05-10T14:26:24;6.13;;;5.00;;
19016;SDS011;9641;51.494;6.670;2023-05-10T14:28:51;8.02;;;5.30;;
19016;SDS011;9641;51.494;6.670;2023-05-10T14:31:18;6.80;;;5.80;;
19016;SDS011;9641;51.494;6.670;2023-05-10T14:33:45;6.55;;;5.10;;
19016;SDS011;9641;51.494;6.670;2023-05-10T14:36:12;6.78;;;5.53;;
19016;SDS011;9641;51.494;6.670;2023-05-10T14:38:40;8.80;;;6.45;;
19016;SDS011;9641;51.494;6.670;2023-05-10T14:41:06;11.40;;;7.18;;
19016;SDS011;9641;51.494;6.670;2023-05-10T14:43:35;8.75;;;6.97;;
19016;SDS011;9641;51.494;6.670;2023-05-10T14:46:02;11.70;;;7.85;;
19016;SDS011;9641;51.494;6.670;2023-05-10T14:48:29;11.73;;;8.57;;
19016;SDS011;9641;51.494;6.670;2023-05-10T14:50:56;9.80;;;7.75;;
19016;SDS011;9641;51.494;6.670;2023-05-10T14:53:22;11.68;;;8.90;;
19016;SDS011;9641;51.494;6.670;2023-05-10T14:55:49;17.67;;;9.90;;
19016;SDS011;9641;51.494;6.670;2023-05-10T14:58:16;10.90;;;8.68;;
19016;SDS011;9641;51.494;6.670;2023-05-10T15:00:45;13.82;;;9.95;;